TBS weather

Tbilisi International Airport
Tbilisi, Tbilisi, Georgia

Public forecast

Using degrees Celsius for public forecast. Weather courtesy of forecast.io.

Current aviation weather report (METAR) for Tbilisi International Airport

Retrieved 2020/07/15 05:30 UTC (0 seconds ago):

UGTB 150530Z 31016KT CAVOK 25/16 Q1017 NOSIG

Aviation forecast (TAF) for Tbilisi International Airport

Retrieved 2020-07-15 00:00 UTC (5 hours ago):

TAF UGTB 142300Z 1500/1524 31017KT CAVOK TX32/1512Z TN20/1502Z BECMG 1508/1510 VRB02KT BECMG 1510/1512 SCT050CB TEMPO 1515/1524 TSRA BKN040CB